New Seabury, Massachusetts
Current Conditions -  °F | °C
As of 7:15 AM on Sunday 25 Jan 2015 (Local Time) from KFMH Reporting Station
Overcast Overcast  
Wind Chill: -4°   Ceiling: 7500
Heat Index:   Visibility: 10mi
Dew Point: -2°   Wind: 8mph
Humidity: 87%   Direction: 260°W
Pressure: 29.53"   Gusts: 15mph
Location:  41.6167°N, 70.4906°W
Report Text: KFMH 251215Z AUTO 26007G13KT 10SM OVC075 00/M02 A2953 RMK AO2
Loading
Personal Weather Stations






























Interactive Weather Map New forecast layout! Learn more

10-Day Weather Forecast

Advertisements
Track Severe Weather on mobile